x

Ne Bahamas - 350 Nm Ene Of Nassau, Bahamas (41047) Wave Buoy

11:50am - Sat 13th Feb 2016 All times are UTC.

  • Sig Wave height 4.6ft
  • Swell Direction
  • Peak Period 10s
  • Average Period 6s
  • Wind
    16mph, 20mph gusts
  • Sea Temp 75°f
  • Air Temp 71°f
  • Sea Pressure 1020.3mb

More Historic Weather Station data

Upgrade to MSW Pro to gain access to the past 30 days of data for over 8000 Wavebouys and Weather Stations around the globe.

Join Pro

Comparision Forecast

View Surf forecast
   
Sat 02/13 11:50am 4.5ft 10s 6s 16 20 mph 1020.3mb 75f 71f
10:50am 4.5ft 9s 6s 18 22 mph 1020.2mb 75f 71f
9:50am 4.5ft 8s 6s 16 18 mph 1019.8mb 75f 71f
8:50am 4.5ft 9s 6s 16 18 mph 1019.5mb 75f 71f
7:50am 5ft 10s 6s 16 18 mph 1019.7mb 75f 71f
6:50am 5ft 9s 6s 13 18 mph 1020mb 75f 71f
5:50am 4.5ft 9s 6s 16 20 mph 1020.5mb 75f 71f
4:50am 5ft 8s 7s 13 18 mph 1021.4mb 75f 71f
3:50am 5ft 8s 6s 11 18 mph 1022.2mb 75f 71f
2:50am 5ft 8s 7s 13 18 mph 1022.6mb 75f 71f
1:50am 4.5ft 9s 7s 13 18 mph 1022.4mb 75f 71f
12:50am 5ft 9s 7s 9 13 mph 1022.7mb 75f 70f
Fri 02/12 11:50pm 5ft 9s 7s 9 13 mph 1022.9mb 75f 70f
10:50pm 5ft 9s 7s 9 13 mph 1022.9mb 75f 70f
9:50pm 5ft 9s 7s 9 13 mph 1023mb 75f 69f
8:50pm 6ft 9s 7s 7 11 mph 1022.8mb 75f 69f
7:50pm 5.5ft 9s 7s 9 11 mph 1023mb 75f 69f
6:50pm 6ft 9s 7s 9 11 mph 1023.4mb 75f 69f
5:50pm 6ft 9s 7s 9 13 mph 1024.4mb 75f 69f
4:50pm 6ft 9s 7s 9 11 mph 1025.4mb 75f 69f
3:50pm 6.5ft 10s 7s 7 11 mph 1026.3mb 75f 68f
2:50pm 7.5ft 10s 8s 9 11 mph 1026.7mb 75f 68f
1:50pm 6.5ft 9s 7s 11 13 mph 1026.5mb 75f 67f
12:50pm 7.5ft 10s 8s 9 13 mph 1026.2mb 75f 68f
11:50am 7ft 10s 7s 11 16 mph 1025.9mb 75f 67f
10:50am 7ft 10s 7s 9 13 mph 1025.5mb 75f 67f
9:50am 7.5ft 10s 7s 7 11 mph 1025.1mb 75f 67f
8:50am 7ft 10s 7s 11 13 mph 1024.6mb 75f 67f
7:50am 7ft 10s 7s 11 13 mph 1024.3mb 75f 67f
6:50am 7ft 9s 7s 11 16 mph 1024.5mb 75f 67f
5:50am 7.5ft 9s 7s 11 16 mph 1024.9mb 75f 67f
4:50am 6.5ft 9s 7s 11 16 mph 1024.9mb 75f 67f
3:50am 8ft 10s 7s 11 16 mph 1024.9mb 75f 67f
2:50am 8ft 10s 7s 11 16 mph 1024.9mb 75f 68f
1:50am 7ft 10s 7s 13 18 mph 1024.7mb 75f 68f
12:50am 7ft 11s 7s 13 18 mph 1024.3mb 75f 68f
Thu 02/11 11:50pm 8.5ft 10s 8s 13 20 mph 1023.9mb 75f 67f
10:50pm 8ft 10s 7s 16 20 mph 1023.5mb 75f 67f
9:50pm 9ft 11s 8s 13 18 mph 1023.3mb 75f 67f
8:50pm 10ft 11s 8s 13 20 mph 1022.8mb 75f 67f
7:50pm 10ft 11s 8s 16 20 mph 1022.1mb 75f 67f
6:50pm 10ft 11s 8s 18 22 mph 1021.9mb 75f 67f
5:50pm 9.5ft 11s 7s 18 22 mph 1022.4mb 75f 68f
4:50pm 9.5ft 11s 8s 18 22 mph 1022.7mb 75f 68f
3:50pm 9ft 11s 7s 18 22 mph 1023.2mb 75f 68f
2:50pm 10ft 11s 7s 16 20 mph 1023.3mb 75f 68f
1:50pm 11ft 11s 8s 18 22 mph 1022.7mb 75f 68f
12:50pm 11ft 11s 8s 20 25 mph 1022.2mb 75f 68f
11:50am 11ft 11s 8s 18 25 mph 1021.5mb 75f 67f
10:50am 10.5ft 11s 7s 20 25 mph 1020.9mb 75f 67f
9:50am 11.5ft 10s 7s 22 29 mph 1020.2mb 75f 67f
8:50am 11ft 11s 7s 25 31 mph 1019.6mb 75f 67f
7:50am 10.5ft 11s 7s 22 27 mph 1019.3mb 75f 67f
6:50am 12ft 11s 8s 22 29 mph 1019.3mb 75f 68f
5:50am 11ft 11s 7s 25 31 mph 1019.6mb 75f 69f
4:50am 11ft 11s 7s 25 29 mph 1020mb 75f 69f
3:50am 11.5ft 11s 7s 22 27 mph 1020.2mb 75f 69f
2:50am 12ft 11s 7s 22 27 mph 1020.1mb 75f 69f
1:50am 12ft 11s 7s 25 29 mph 1019.7mb 75f 69f
12:50am 11.5ft 11s 7s 25 31 mph 1019.4mb 75f 70f
Wed 02/10 11:50pm 12ft 11s 8s 25 29 mph 1019mb 75f 70f
10:50pm 12ft 11s 8s 22 29 mph 1018.5mb 74f 70f
9:50pm 12ft 11s 7s 22 27 mph 1018mb 74f 70f
8:50pm 11.5ft 11s 7s 22 29 mph 1017.3mb 74f 70f
7:50pm 12ft 11s 7s 22 29 mph 1017mb 74f 70f
6:50pm 11ft 11s 7s 25 31 mph 1016.9mb 74f 71f
5:50pm 10.5ft 9s 7s 25 29 mph 1017.2mb 74f 72f
4:50pm 11ft 11s 7s 27 34 mph 1017.7mb 74f 72f
3:50pm 10.5ft 10s 7s 27 29 mph 1018.3mb 74f 72f
2:50pm 11ft 11s 7s 27 31 mph 1018.1mb 74f 73f
1:50pm 10ft 11s 7s 25 31 mph 1017.9mb 74f 73f
12:50pm 10ft 11s 7s 22 29 mph 1017.6mb 74f 72f
11:50am 11ft 10s 7s 22 27 mph 1017.1mb 74f 71f
10:50am 11.5ft 10s 7s 25 29 mph 1016.6mb 74f 71f
9:50am 13ft 11s 8s 22 27 mph 1016.1mb 74f 71f
8:50am 11ft 11s 7s 25 34 mph 1016mb 74f 71f
7:50am 13ft 11s 7s 27 31 mph 1016mb 74f 71f
6:50am 11.5ft 11s 7s 25 29 mph 1016.5mb 74f 70f
5:50am 12.5ft 11s 8s 25 29 mph 1017mb 74f 71f
4:50am 12.5ft 12s 8s 25 29 mph 1016.9mb 74f 71f
3:50am 12.5ft 12s 7s 25 29 mph 1016.8mb 74f 71f
2:50am 12.5ft 13s 7s 22 29 mph 1016.8mb 75f 72f
1:50am 13ft 11s 7s 25 29 mph 1016.4mb 75f 72f
12:50am 13ft 11s 8s 25 29 mph 1015.8mb 75f 72f
Tue 02/09 11:50pm 12ft 8s 7s 25 31 mph 1015.2mb 75f 72f
10:50pm 11ft 8s 7s 22 29 mph 1014.7mb 75f 71f
9:50pm 10.5ft 8s 7s 29 34 mph 1013.6mb 75f 73f
8:50pm 12ft 8s 7s 29 36 mph 1013.3mb 75f 74f
7:50pm 11ft 8s 6s 27 34 mph 1013.3mb 75f 74f
6:50pm 11ft 8s 7s 29 34 mph 1013.4mb 75f 73f
5:50pm 11ft 8s 7s 27 34 mph 1013.8mb 75f 72f
4:50pm 11ft 8s 7s 29 34 mph 1014.8mb 75f 72f
3:50pm 12ft 13s 7s 27 34 mph 1015.1mb 75f 72f
2:50pm 10.5ft 9s 7s 27 36 mph 1015.2mb 75f 72f
1:50pm 11ft 7s 7s 29 38 mph 1014.8mb 75f 71f